Time;durP1;ratioP1;P1;durP2;ratioP2;P2;SDS_P1;SDS_P2;PMS_P1;PMS_P2;Temp;Humidity;BMP_temperature;BMP_pressure;BME280_temperature;BME280_humidity;BME280_pressure;Samples;Min_cycle;Max_cycle;Signal;HPM_P1;HPM_P2
2023/10/20 00:02:22;;;;;;;3.90;3.50;;;8.10;99.90;;;;;;5115936;28;20036;-66
2023/10/20 00:04:48;;;;;;;3.63;3.33;;;8.10;99.90;;;;;;5097256;28;20071;-67
2023/10/20 00:07:14;;;;;;;4.07;3.67;;;8.10;99.90;;;;;;5115844;28;20497;-66
2023/10/20 00:09:39;;;;;;;4.20;3.38;;;8.10;99.90;;;;;;5115600;28;20377;-66
2023/10/20 00:12:05;;;;;;;4.35;3.90;;;8.10;99.90;;;;;;5097430;28;20032;-66
2023/10/20 00:14:31;;;;;;;4.25;3.85;;;8.10;99.90;;;;;;5097100;28;20047;-67
2023/10/20 00:16:57;;;;;;;4.47;4.07;;;8.10;99.90;;;;;;5115558;28;20031;-67
2023/10/20 00:19:22;;;;;;;4.47;4.07;;;8.10;99.90;;;;;;5115595;28;20047;-67
2023/10/20 00:21:48;;;;;;;4.85;4.45;;;8.10;99.90;;;;;;5115611;28;20038;-67
2023/10/20 00:24:13;;;;;;;3.83;3.53;;;8.10;99.90;;;;;;5115152;28;20402;-67
2023/10/20 00:26:39;;;;;;;4.97;4.47;;;8.10;99.90;;;;;;5115512;28;20035;-66
2023/10/20 00:29:05;;;;;;;5.60;4.78;;;8.10;99.90;;;;;;5115404;28;20035;-66
2023/10/20 00:31:32;;;;;;;5.72;5.10;;;8.00;99.90;;;;;;5115335;28;20035;-67
2023/10/20 00:33:57;;;;;;;4.68;4.28;;;8.10;99.90;;;;;;5097222;28;20448;-66
2023/10/20 00:36:23;;;;;;;5.07;4.20;;;8.10;99.90;;;;;;5115158;28;20069;-67
2023/10/20 00:38:48;;;;;;;5.43;4.80;;;8.10;99.90;;;;;;5115393;28;20031;-65
2023/10/20 00:41:14;;;;;;;5.28;4.78;;;8.10;99.90;;;;;;5114876;28;20047;-64
2023/10/20 00:43:39;;;;;;;4.82;4.43;;;8.10;99.90;;;;;;5114805;28;20031;-65
2023/10/20 00:46:07;;;;;;;5.20;4.70;;;8.10;99.90;;;;;;5096622;28;20039;-64
2023/10/20 00:48:35;;;;;;;5.55;5.07;;;8.00;99.90;;;;;;5115024;28;20124;-65
2023/10/20 00:51:02;;;;;;;4.90;4.40;;;8.10;99.90;;;;;;5115025;28;20505;-64
2023/10/20 00:53:29;;;;;;;5.82;5.20;;;8.10;99.90;;;;;;5114941;28;20560;-64
2023/10/20 00:55:58;;;;;;;5.97;5.38;;;8.10;99.90;;;;;;5114842;28;20148;-64
2023/10/20 00:58:28;;;;;;;5.60;4.95;;;8.20;99.90;;;;;;5114811;28;20039;-65
2023/10/20 01:00:54;;;;;;;5.53;5.03;;;8.10;99.90;;;;;;5114802;28;20077;-64
2023/10/20 01:03:21;;;;;;;5.70;4.95;;;8.00;99.90;;;;;;5114756;28;20413;-65
2023/10/20 01:05:47;;;;;;;5.32;4.88;;;8.00;99.90;;;;;;5114371;28;20126;-65
2023/10/20 01:08:14;;;;;;;6.00;5.40;;;8.00;99.90;;;;;;5114040;28;20471;-65
2023/10/20 01:10:40;;;;;;;6.63;4.93;;;8.00;99.90;;;;;;5114119;28;20047;-64
2023/10/20 01:13:06;;;;;;;9.30;4.55;;;8.00;99.90;;;;;;5114611;28;20043;-64
2023/10/20 01:15:32;;;;;;;5.53;4.95;;;8.00;99.90;;;;;;5114187;28;20066;-64
2023/10/20 01:17:58;;;;;;;5.13;4.70;;;8.00;99.90;;;;;;5114227;28;20040;-65
2023/10/20 01:20:23;;;;;;;5.55;5.05;;;8.10;99.90;;;;;;5114422;28;20039;-64
2023/10/20 01:22:49;;;;;;;5.57;4.50;;;8.00;99.90;;;;;;5114043;28;20035;-65
2023/10/20 01:25:15;;;;;;;4.82;4.40;;;8.00;99.90;;;;;;5114314;28;20038;-64
2023/10/20 01:27:41;;;;;;;4.43;4.03;;;8.00;99.90;;;;;;5114281;28;20035;-65
2023/10/20 01:30:07;;;;;;;4.93;4.47;;;8.00;99.90;;;;;;5114197;28;20031;-64
2023/10/20 01:32:33;;;;;;;4.88;4.38;;;8.00;99.90;;;;;;5114156;28;20079;-64
2023/10/20 01:34:58;;;;;;;5.15;4.10;;;8.00;99.90;;;;;;5114103;28;20124;-65
2023/10/20 01:37:24;;;;;;;6.55;5.18;;;8.00;99.90;;;;;;5113814;28;20398;-64
2023/10/20 01:39:50;;;;;;;5.38;4.85;;;8.00;99.90;;;;;;5114114;28;20040;-64
2023/10/20 01:42:15;;;;;;;5.93;4.72;;;8.00;99.90;;;;;;5113731;28;20487;-64
2023/10/20 01:44:41;;;;;;;5.25;4.75;;;8.00;99.90;;;;;;5113979;28;20486;-64
2023/10/20 01:47:07;;;;;;;5.20;4.57;;;8.00;99.90;;;;;;5113956;28;20499;-65
2023/10/20 01:49:32;;;;;;;5.05;4.55;;;8.00;99.90;;;;;;5114012;28;20042;-68
2023/10/20 01:51:58;;;;;;;5.03;4.45;;;8.00;99.90;;;;;;5113941;28;20044;-66
2023/10/20 01:54:24;;;;;;;9.20;4.65;;;8.00;99.90;;;;;;5113803;28;20514;-66
2023/10/20 01:56:50;;;;;;;5.88;5.03;;;8.00;99.90;;;;;;5113738;28;20040;-67
2023/10/20 01:59:16;;;;;;;5.80;4.75;;;8.00;99.90;;;;;;5113401;28;20376;-66
2023/10/20 02:01:42;;;;;;;4.85;4.35;;;8.00;99.90;;;;;;5113502;28;20044;-67
2023/10/20 02:04:08;;;;;;;5.03;4.53;;;8.00;99.90;;;;;;5113517;28;20159;-66
2023/10/20 02:06:34;;;;;;;4.82;4.32;;;8.00;99.90;;;;;;5113344;28;20493;-66
2023/10/20 02:09:00;;;;;;;5.28;4.30;;;8.00;99.90;;;;;;5113695;28;20039;-66
2023/10/20 02:11:25;;;;;;;5.15;4.22;;;8.00;99.90;;;;;;5113641;28;20368;-67
2023/10/20 02:13:51;;;;;;;5.50;4.40;;;8.00;99.90;;;;;;5113688;28;20032;-67
2023/10/20 02:16:17;;;;;;;4.53;4.03;;;8.00;99.90;;;;;;5113440;28;20039;-67
2023/10/20 02:18:43;;;;;;;4.47;4.07;;;8.00;99.90;;;;;;5113645;28;20031;-66
2023/10/20 02:21:09;;;;;;;4.68;4.07;;;8.00;99.90;;;;;;5119077;28;20035;-66
2023/10/20 02:23:36;;;;;;;4.30;3.50;;;8.00;99.90;;;;;;5101978;28;20471;-67
2023/10/20 02:26:07;;;;;;;4.15;3.75;;;8.10;99.90;;;;;;5119989;28;20040;-67
2023/10/20 02:28:34;;;;;;;3.90;3.60;;;8.00;99.90;;;;;;5120308;28;20058;-67
2023/10/20 02:31:01;;;;;;;4.10;3.70;;;8.00;99.90;;;;;;5120296;28;20089;-67
2023/10/20 02:33:27;;;;;;;3.55;3.25;;;8.00;99.90;;;;;;5120282;28;20807;-67
2023/10/20 02:35:54;;;;;;;4.00;3.70;;;8.00;99.90;;;;;;5120235;28;20067;-67
2023/10/20 02:38:20;;;;;;;3.95;3.55;;;8.00;99.90;;;;;;5120237;28;20123;-67
2023/10/20 02:40:50;;;;;;;4.47;4.07;;;8.00;99.90;;;;;;5101864;28;20127;-66
2023/10/20 02:43:15;;;;;;;3.45;3.15;;;8.70;99.90;;;;;;5120165;28;20081;-67
2023/10/20 02:45:52;;;;;;;3.45;3.13;;;8.00;99.90;;;;;;5120200;28;20039;-67
2023/10/20 02:48:18;;;;;;;5.15;3.67;;;8.00;99.90;;;;;;5101611;28;20071;-67
2023/10/20 02:50:44;;;;;;;3.67;3.20;;;8.00;99.90;;;;;;5120167;28;20081;-67
2023/10/20 02:53:10;;;;;;;4.10;3.70;;;8.00;99.90;;;;;;5119680;28;20040;-67
2023/10/20 02:55:37;;;;;;;4.07;3.67;;;8.00;99.90;;;;;;5119674;28;20043;-66
2023/10/20 02:58:03;;;;;;;3.50;3.20;;;8.00;99.90;;;;;;5120150;28;20044;-64
2023/10/20 03:00:28;;;;;;;3.47;3.17;;;8.00;99.90;;;;;;5119961;28;20040;-64
2023/10/20 03:02:54;;;;;;;3.65;3.28;;;8.00;99.90;;;;;;5120018;28;20031;-65
2023/10/20 03:05:21;;;;;;;3.83;3.42;;;8.00;99.90;;;;;;5119626;28;20455;-64
2023/10/20 03:07:47;;;;;;;3.45;3.15;;;8.00;99.90;;;;;;5119967;28;20051;-65
2023/10/20 03:10:13;;;;;;;3.42;2.92;;;8.00;99.90;;;;;;5119915;28;20055;-65
2023/10/20 03:12:39;;;;;;;3.33;3.03;;;8.00;99.90;;;;;;5119630;28;20043;-65
2023/10/20 03:15:07;;;;;;;3.80;3.50;;;8.00;99.90;;;;;;5119948;28;20046;-65
2023/10/20 03:17:33;;;;;;;3.20;2.90;;;8.00;99.90;;;;;;5119764;28;20084;-64
2023/10/20 03:19:58;;;;;;;3.35;2.90;;;7.90;99.90;;;;;;5120150;28;20495;-65
2023/10/20 03:22:24;;;;;;;3.42;3.13;;;8.00;99.90;;;;;;5119813;28;20040;-67
2023/10/20 03:24:50;;;;;;;3.47;3.17;;;8.00;99.90;;;;;;5119825;28;20471;-64
2023/10/20 03:27:15;;;;;;;3.40;3.10;;;8.00;99.90;;;;;;5119764;28;20036;-64
2023/10/20 03:29:41;;;;;;;2.92;2.72;;;7.90;99.90;;;;;;5119834;28;20396;-67
2023/10/20 03:32:08;;;;;;;2.97;2.72;;;7.90;99.90;;;;;;5116448;28;20394;-67
2023/10/20 03:34:33;;;;;;;3.45;3.15;;;7.90;99.90;;;;;;5116191;28;20047;-67
2023/10/20 03:37:00;;;;;;;3.63;3.33;;;7.90;99.90;;;;;;5116459;28;20032;-67
2023/10/20 03:39:27;;;;;;;3.35;3.05;;;7.90;99.90;;;;;;5116388;28;20051;-67
2023/10/20 03:41:53;;;;;;;3.10;2.90;;;7.90;99.90;;;;;;5116060;28;20051;-67
2023/10/20 03:44:22;;;;;;;3.50;3.13;;;7.90;99.90;;;;;;5116337;28;20476;-67
2023/10/20 03:46:49;;;;;;;3.65;3.30;;;7.80;99.90;;;;;;5116270;28;20044;-66
2023/10/20 03:49:18;;;;;;;2.95;2.72;;;7.90;99.90;;;;;;5116185;28;20112;-67
2023/10/20 03:51:53;;;;;;;3.15;2.83;;;7.90;99.90;;;;;;5116151;28;20425;-67
2023/10/20 03:54:23;;;;;;;2.83;2.42;;;8.00;99.90;;;;;;5116162;28;20035;-67
2023/10/20 03:56:48;;;;;;;3.05;2.80;;;7.80;99.90;;;;;;5115956;28;20040;-66
2023/10/20 03:59:14;;;;;;;2.80;2.53;;;7.80;99.90;;;;;;5116007;28;20372;-67
2023/10/20 04:01:40;;;;;;;3.10;2.80;;;7.80;99.90;;;;;;5097448;28;20088;-67
2023/10/20 04:04:09;;;;;;;3.95;3.55;;;7.80;99.90;;;;;;5097229;28;20039;-67
2023/10/20 04:06:43;;;;;;;3.20;2.60;;;7.80;99.90;;;;;;5097356;28;20047;-67
2023/10/20 04:09:09;;;;;;;2.70;2.50;;;7.80;99.90;;;;;;5115924;28;20114;-67
2023/10/20 04:11:38;;;;;;;2.95;2.67;;;7.80;99.90;;;;;;5115424;28;20434;-67
2023/10/20 04:14:06;;;;;;;3.13;2.83;;;7.80;99.90;;;;;;5115710;28;20068;-67
2023/10/20 04:16:39;;;;;;;2.95;2.65;;;7.80;99.90;;;;;;5115656;28;20475;-68
2023/10/20 04:19:14;;;;;;;2.90;2.63;;;7.70;99.90;;;;;;5115318;28;20035;-67
2023/10/20 04:21:41;;;;;;;3.22;2.92;;;7.80;99.90;;;;;;5115602;28;20043;-68
2023/10/20 04:24:07;;;;;;;2.33;2.13;;;8.10;99.90;;;;;;5115316;28;20023;-67
2023/10/20 04:26:43;;;;;;;2.70;2.40;;;7.70;99.90;;;;;;5115402;28;20047;-66
2023/10/20 04:48:15;;;;;;;3.15;2.85;;;7.70;99.90;;;;;;5115061;28;20051;-64
2023/10/20 04:56:25;;;;;;;3.53;3.13;;;7.70;99.90;;;;;;5114530;28;20136;-65
2023/10/20 05:01:41;;;;;;;2.25;2.05;;;7.70;99.90;;;;;;5114798;28;20040;-66
2023/10/20 05:04:16;;;;;;;2.90;2.70;;;7.70;99.90;;;;;;5113632;28;20400;-63
2023/10/20 05:06:45;;;;;;;2.53;2.30;;;7.70;99.90;;;;;;5114504;28;20054;-63
2023/10/20 05:09:14;;;;;;;2.67;2.47;;;7.70;99.90;;;;;;5114249;28;20035;-63
2023/10/20 05:11:41;;;;;;;2.67;2.47;;;7.80;99.90;;;;;;5114519;28;20128;-63
2023/10/20 05:14:07;;;;;;;2.75;2.33;;;7.70;99.90;;;;;;5114413;28;20443;-63
2023/10/20 05:16:35;;;;;;;2.85;2.40;;;7.70;99.90;;;;;;5114444;28;20410;-64
2023/10/20 05:19:05;;;;;;;2.72;2.33;;;7.60;99.90;;;;;;5114367;28;20035;-64
2023/10/20 05:21:38;;;;;;;3.10;2.80;;;7.70;99.90;;;;;;5096288;28;20047;-64
2023/10/20 05:24:04;;;;;;;2.80;2.53;;;7.60;99.90;;;;;;5114370;28;20126;-64
2023/10/20 05:26:32;;;;;;;2.30;2.10;;;7.70;99.90;;;;;;5114357;28;20035;-63
2023/10/20 05:28:59;;;;;;;2.40;2.20;;;7.60;99.90;;;;;;5114324;28;20460;-64
2023/10/20 05:31:26;;;;;;;2.30;2.03;;;7.60;99.90;;;;;;5114214;28;20036;-64
2023/10/20 05:33:53;;;;;;;2.10;1.83;;;7.70;99.90;;;;;;5096032;28;20048;-64
2023/10/20 05:36:18;;;;;;;2.10;1.90;;;7.70;99.90;;;;;;5113999;28;20039;-63
2023/10/20 05:38:44;;;;;;;2.30;1.90;;;7.70;99.90;;;;;;5113767;28;20036;-64
2023/10/20 05:41:11;;;;;;;1.90;1.80;;;7.70;99.90;;;;;;5113823;28;20027;-65
2023/10/20 05:43:37;;;;;;;1.80;1.70;;;7.70;99.90;;;;;;5114000;28;20032;-64
2023/10/20 05:46:02;;;;;;;1.77;1.67;;;7.70;99.90;;;;;;5095845;28;20498;-65
2023/10/20 05:48:28;;;;;;;1.92;1.83;;;7.70;99.90;;;;;;5113980;28;20515;-64
2023/10/20 05:50:58;;;;;;;1.70;1.60;;;7.70;99.90;;;;;;5095767;28;20523;-64
2023/10/20 05:53:26;;;;;;;2.15;1.95;;;7.70;99.90;;;;;;5113852;28;20108;-65
2023/10/20 05:55:52;;;;;;;1.70;1.60;;;8.20;99.90;;;;;;5113291;28;20036;-65
2023/10/20 05:58:19;;;;;;;2.03;1.92;;;7.70;99.90;;;;;;5113867;28;20070;-66
2023/10/20 06:00:44;;;;;;;1.63;1.52;;;7.70;99.90;;;;;;5114132;28;20040;-67
2023/10/20 06:03:11;;;;;;;1.80;1.70;;;7.70;99.90;;;;;;5113755;28;20433;-67
2023/10/20 06:05:37;;;;;;;1.73;1.63;;;7.80;99.90;;;;;;5113225;28;20047;-66
2023/10/20 06:08:03;;;;;;;1.58;1.48;;;7.70;99.90;;;;;;5113704;28;20047;-65
2023/10/20 06:10:29;;;;;;;1.52;1.42;;;7.70;99.90;;;;;;5113623;28;20039;-67
2023/10/20 06:12:55;;;;;;;3.35;1.30;;;7.70;99.90;;;;;;5113363;28;20044;-65
2023/10/20 06:15:21;;;;;;;1.98;1.77;;;7.70;99.90;;;;;;5113464;28;20372;-66
2023/10/20 06:17:49;;;;;;;1.95;1.75;;;7.70;99.90;;;;;;5112270;28;20043;-68
2023/10/20 06:20:15;;;;;;;1.42;1.33;;;7.70;99.90;;;;;;5095250;28;20036;-66
2023/10/20 06:22:42;;;;;;;1.70;1.60;;;7.70;99.90;;;;;;5095351;28;20036;-66
2023/10/20 06:25:17;;;;;;;1.60;1.42;;;7.70;99.90;;;;;;5113214;28;20035;-66
2023/10/20 06:27:44;;;;;;;1.40;1.30;;;7.80;99.90;;;;;;5113124;28;20036;-66
2023/10/20 06:30:22;;;;;;;1.55;1.40;;;7.70;99.90;;;;;;5113147;28;20078;-66
2023/10/20 06:33:11;;;;;;;1.40;1.30;;;7.80;99.90;;;;;;5113476;28;20415;-66
2023/10/20 06:35:48;;;;;;;1.60;1.50;;;7.70;99.90;;;;;;5113322;28;20123;-65
2023/10/20 06:38:17;;;;;;;1.65;1.45;;;7.70;99.90;;;;;;5113140;28;20051;-72
2023/10/20 06:40:42;;;;;;;2.78;1.77;;;7.70;99.90;;;;;;5095136;28;20506;-65
2023/10/20 06:43:08;;;;;;;1.20;1.10;;;7.70;99.90;;;;;;5113374;28;20028;-65
2023/10/20 06:45:34;;;;;;;1.52;1.33;;;7.80;99.90;;;;;;5113291;28;20044;-66
2023/10/20 06:48:00;;;;;;;1.40;1.30;;;7.80;99.90;;;;;;5113268;28;20042;-66
2023/10/20 06:50:25;;;;;;;1.45;1.10;;;7.80;99.90;;;;;;5113268;28;20104;-64
2023/10/20 06:52:53;;;;;;;1.48;1.38;;;7.80;99.90;;;;;;5113307;28;20040;-65
2023/10/20 06:55:19;;;;;;;1.80;1.35;;;7.80;99.90;;;;;;5113245;28;20391;-65
2023/10/20 06:57:44;;;;;;;1.80;1.58;;;7.80;99.90;;;;;;5113104;28;20044;-66
2023/10/20 07:00:17;;;;;;;1.50;1.17;;;8.20;99.90;;;;;;5112911;28;20472;-64
2023/10/20 07:02:43;;;;;;;1.33;1.23;;;7.80;99.90;;;;;;5113118;28;20083;-65
2023/10/20 07:05:08;;;;;;;1.40;1.30;;;7.80;99.90;;;;;;5112795;28;20050;-64
2023/10/20 07:07:34;;;;;;;1.20;1.10;;;7.80;99.90;;;;;;5114959;28;20119;-65
2023/10/20 07:10:01;;;;;;;1.13;1.02;;;7.80;99.90;;;;;;5117057;28;20062;-65
2023/10/20 07:12:27;;;;;;;1.52;1.20;;;7.80;99.90;;;;;;5116611;28;20042;-65
2023/10/20 07:14:53;;;;;;;1.30;1.20;;;7.80;99.90;;;;;;5116846;28;20621;-65
2023/10/20 07:17:18;;;;;;;1.55;1.20;;;7.80;99.90;;;;;;5116818;28;20479;-65
2023/10/20 07:19:44;;;;;;;1.13;1.02;;;7.80;99.90;;;;;;5116785;28;20403;-65
2023/10/20 07:22:09;;;;;;;0.98;0.95;;;7.80;99.90;;;;;;5116473;28;20479;-66
2023/10/20 07:24:35;;;;;;;0.90;0.90;;;7.80;99.90;;;;;;5116641;28;20088;-65
2023/10/20 07:27:02;;;;;;;1.17;1.15;;;7.80;99.90;;;;;;5116368;28;20130;-65
2023/10/20 07:29:28;;;;;;;1.27;1.17;;;7.80;99.90;;;;;;5116263;28;20032;-65
2023/10/20 07:31:54;;;;;;;1.00;1.00;;;7.80;99.90;;;;;;5116436;28;20043;-65
2023/10/20 07:34:21;;;;;;;1.80;1.38;;;7.80;99.90;;;;;;5098245;28;20054;-65
2023/10/20 07:36:46;;;;;;;1.55;1.30;;;7.80;99.90;;;;;;5115931;28;20036;-65
2023/10/20 07:39:16;;;;;;;1.20;1.10;;;7.80;99.90;;;;;;5116452;28;20050;-66
2023/10/20 07:41:43;;;;;;;1.30;1.20;;;7.80;99.90;;;;;;5097766;28;20082;-66
2023/10/20 07:44:11;;;;;;;1.30;1.20;;;7.80;99.90;;;;;;5116055;28;20047;-65
2023/10/20 07:46:37;;;;;;;2.50;1.13;;;7.80;99.90;;;;;;5115826;28;20043;-65
2023/10/20 07:49:03;;;;;;;1.08;0.95;;;7.80;99.90;;;;;;5116259;28;20088;-65
2023/10/20 07:51:28;;;;;;;1.08;0.98;;;7.70;99.90;;;;;;5115933;28;20506;-65
2023/10/20 07:53:54;;;;;;;0.90;0.90;;;7.70;99.90;;;;;;5115822;28;20039;-65
2023/10/20 07:56:20;;;;;;;1.27;1.02;;;7.70;99.90;;;;;;5115838;28;20036;-65
2023/10/20 07:58:45;;;;;;;0.90;0.90;;;7.60;99.90;;;;;;5115893;28;20040;-65
2023/10/20 08:01:11;;;;;;;0.80;0.80;;;7.70;99.90;;;;;;5115890;28;20028;-65
2023/10/20 08:03:36;;;;;;;0.82;0.80;;;7.70;99.90;;;;;;5115753;28;20544;-65
2023/10/20 08:06:03;;;;;;;0.90;0.90;;;7.60;99.90;;;;;;5115412;28;20047;-66
2023/10/20 08:08:30;;;;;;;0.95;0.90;;;7.60;99.90;;;;;;5115433;28;20130;-66
2023/10/20 08:10:56;;;;;;;1.20;0.98;;;7.60;99.90;;;;;;5115787;28;20051;-73
2023/10/20 08:13:21;;;;;;;0.88;0.88;;;7.60;99.90;;;;;;5115298;28;20035;-67
2023/10/20 08:15:47;;;;;;;1.00;0.90;;;7.60;99.90;;;;;;5115588;28;20040;-67
2023/10/20 08:18:13;;;;;;;0.70;0.70;;;7.60;99.90;;;;;;5115070;28;20039;-68
2023/10/20 08:20:39;;;;;;;0.93;0.93;;;7.60;99.90;;;;;;5115378;28;20495;-67
2023/10/20 08:23:05;;;;;;;0.80;0.80;;;7.50;99.90;;;;;;5115163;28;20047;-67
2023/10/20 08:25:30;;;;;;;0.60;0.60;;;7.50;99.90;;;;;;5115439;28;20031;-67
2023/10/20 08:27:57;;;;;;;0.90;0.90;;;7.50;99.90;;;;;;5115409;28;20063;-66
2023/10/20 08:30:23;;;;;;;0.70;0.70;;;7.40;99.90;;;;;;5115327;28;20047;-66
2023/10/20 08:32:49;;;;;;;0.73;0.73;;;7.40;99.90;;;;;;5115365;28;20024;-66
2023/10/20 08:35:15;;;;;;;0.75;0.75;;;7.40;99.90;;;;;;5114982;28;20043;-66
2023/10/20 08:37:41;;;;;;;0.95;0.93;;;7.40;99.90;;;;;;5114925;28;20043;-66
2023/10/20 08:40:10;;;;;;;0.82;0.70;;;7.40;99.90;;;;;;5115178;28;20040;-66
2023/10/20 08:42:39;;;;;;;0.70;0.70;;;7.40;99.90;;;;;;5115099;28;20535;-66
2023/10/20 08:45:14;;;;;;;0.80;0.80;;;7.30;99.90;;;;;;5096825;28;20475;-66
2023/10/20 08:47:43;;;;;;;0.70;0.70;;;7.30;99.90;;;;;;5114826;28;20412;-66
2023/10/20 08:50:10;;;;;;;0.70;0.70;;;7.30;99.90;;;;;;5115039;28;20044;-66
2023/10/20 08:52:36;;;;;;;0.60;0.60;;;7.30;99.90;;;;;;5114924;28;20045;-66
2023/10/20 08:55:04;;;;;;;0.70;0.70;;;7.30;99.90;;;;;;5114525;28;20036;-66
2023/10/20 08:57:29;;;;;;;0.80;0.70;;;7.20;99.90;;;;;;5114734;28;20438;-66
2023/10/20 08:59:55;;;;;;;0.60;0.60;;;7.30;99.90;;;;;;5114800;28;20039;-66
2023/10/20 09:02:21;;;;;;;0.70;0.70;;;7.30;99.90;;;;;;5114723;28;20038;-66
2023/10/20 09:04:53;;;;;;;0.90;0.80;;;7.20;99.90;;;;;;5114467;28;20533;-66
2023/10/20 09:07:21;;;;;;;0.70;0.70;;;7.30;99.90;;;;;;5114575;28;20093;-67
2023/10/20 09:09:47;;;;;;;0.65;0.65;;;7.20;99.90;;;;;;5114553;28;20039;-66
2023/10/20 09:12:13;;;;;;;0.60;0.60;;;7.20;99.90;;;;;;5114581;28;20107;-66
2023/10/20 09:14:40;;;;;;;0.60;0.60;;;7.20;99.90;;;;;;5114520;28;20057;-66
2023/10/20 09:17:06;;;;;;;0.70;0.70;;;7.20;99.90;;;;;;5114054;28;20074;-66
2023/10/20 09:19:32;;;;;;;0.82;0.80;;;7.20;99.90;;;;;;5114468;28;20038;-65
2023/10/20 09:21:57;;;;;;;0.77;0.77;;;7.20;99.90;;;;;;5114409;28;20472;-66
2023/10/20 09:24:34;;;;;;;0.60;0.60;;;7.20;99.90;;;;;;5114345;28;20048;-65
2023/10/20 09:27:01;;;;;;;0.85;0.85;;;7.20;99.90;;;;;;5114329;28;20048;-65
2023/10/20 09:29:30;;;;;;;0.70;0.70;;;7.20;99.90;;;;;;5095168;28;20501;-66
2023/10/20 09:31:59;;;;;;;0.65;0.65;;;7.20;99.90;;;;;;5113787;28;20045;-66
2023/10/20 09:34:25;;;;;;;0.70;0.70;;;7.20;99.90;;;;;;5114076;28;20039;-67
2023/10/20 09:36:53;;;;;;;0.63;0.63;;;7.70;99.90;;;;;;5113719;28;20042;-66
2023/10/20 09:39:28;;;;;;;0.70;0.70;;;7.20;99.90;;;;;;5114045;28;20042;-66
2023/10/20 09:41:56;;;;;;;0.70;0.70;;;7.10;99.90;;;;;;5113970;28;20123;-66
2023/10/20 09:44:28;;;;;;;0.68;0.68;;;7.20;99.90;;;;;;5114062;28;20042;-66
2023/10/20 09:46:55;;;;;;;0.80;0.80;;;7.10;99.90;;;;;;5113959;28;20418;-66
2023/10/20 09:49:26;;;;;;;0.60;0.60;;;7.10;99.90;;;;;;5113884;28;20051;-66
2023/10/20 09:51:54;;;;;;;0.60;0.60;;;7.10;99.90;;;;;;5113903;28;20047;-66
2023/10/20 09:54:22;;;;;;;0.60;0.60;;;7.10;99.90;;;;;;5113433;28;20281;-66
2023/10/20 09:56:49;;;;;;;0.70;0.70;;;7.10;99.90;;;;;;5113642;28;20047;-70
2023/10/20 09:59:27;;;;;;;0.77;0.63;;;7.00;99.90;;;;;;5113679;28;20395;-65
2023/10/20 10:01:53;;;;;;;0.70;0.70;;;7.10;99.90;;;;;;5113589;28;20032;-65
2023/10/20 10:04:25;;;;;;;0.60;0.60;;;7.00;99.90;;;;;;5113454;28;20048;-65
2023/10/20 10:06:51;;;;;;;0.70;0.70;;;7.00;99.90;;;;;;5113337;28;20047;-65
2023/10/20 10:09:18;;;;;;;0.70;0.70;;;7.00;99.90;;;;;;5113328;28;20402;-65
2023/10/20 10:11:45;;;;;;;0.60;0.60;;;6.90;99.90;;;;;;5113510;28;20081;-66
2023/10/20 10:14:21;;;;;;;0.52;0.52;;;6.90;99.90;;;;;;5113457;28;20036;-65
2023/10/20 10:16:54;;;;;;;0.50;0.50;;;7.00;99.90;;;;;;5113428;28;20108;-66
2023/10/20 10:19:23;;;;;;;0.60;0.60;;;6.90;99.90;;;;;;5113450;28;20043;-66
2023/10/20 10:21:53;;;;;;;0.57;0.57;;;6.90;99.90;;;;;;5113558;28;20056;-66
2023/10/20 10:24:20;;;;;;;0.50;0.50;;;6.90;99.90;;;;;;5113300;28;20102;-65
2023/10/20 10:26:46;;;;;;;0.52;0.52;;;6.90;99.90;;;;;;5113411;28;20046;-65
2023/10/20 10:29:12;;;;;;;0.50;0.50;;;6.90;99.90;;;;;;5113145;28;20035;-65
2023/10/20 10:31:38;;;;;;;0.60;0.60;;;6.80;99.90;;;;;;5113534;28;20394;-64
2023/10/20 10:34:04;;;;;;;0.50;0.50;;;6.80;99.90;;;;;;5113102;28;20047;-64
2023/10/20 10:36:44;;;;;;;0.50;0.50;;;6.80;99.90;;;;;;5113298;28;20410;-64
2023/10/20 10:39:29;;;;;;;0.70;0.70;;;6.80;99.90;;;;;;5113401;28;20471;-64
2023/10/20 10:42:05;;;;;;;0.50;0.50;;;6.80;99.90;;;;;;5116107;28;20027;-66
2023/10/20 10:44:35;;;;;;;1.38;0.70;;;6.80;99.90;;;;;;5117484;28;20036;-66
2023/10/20 10:47:05;;;;;;;0.57;0.57;;;6.80;99.90;;;;;;5117142;28;20047;-66
2023/10/20 10:49:34;;;;;;;0.40;0.40;;;6.80;99.90;;;;;;5117387;28;20046;-66
2023/10/20 10:52:07;;;;;;;0.68;0.60;;;6.80;99.90;;;;;;5117417;28;20548;-66
2023/10/20 10:54:33;;;;;;;0.50;0.50;;;6.80;99.90;;;;;;5117328;28;20398;-66
2023/10/20 10:57:03;;;;;;;0.50;0.50;;;6.80;99.90;;;;;;5117234;28;20043;-66
2023/10/20 10:59:30;;;;;;;0.88;0.70;;;6.90;99.90;;;;;;5117160;28;20035;-66
2023/10/20 11:01:56;;;;;;;0.40;0.40;;;6.80;99.90;;;;;;5117165;28;20437;-66
2023/10/20 11:04:23;;;;;;;0.50;0.50;;;6.90;99.90;;;;;;5116906;28;20479;-66
2023/10/20 11:06:48;;;;;;;0.40;0.40;;;6.90;99.90;;;;;;5117081;28;20039;-65
2023/10/20 11:09:19;;;;;;;0.50;0.50;;;6.90;99.90;;;;;;5117018;28;20448;-66
2023/10/20 11:11:47;;;;;;;0.50;0.50;;;6.90;99.90;;;;;;5116984;28;20541;-66
2023/10/20 11:14:17;;;;;;;0.50;0.50;;;6.80;99.90;;;;;;5116968;28;20525;-66
2023/10/20 11:16:43;;;;;;;0.55;0.55;;;6.80;99.90;;;;;;5116699;28;20047;-66
2023/10/20 11:19:12;;;;;;;0.50;0.50;;;6.80;99.90;;;;;;5098406;28;20047;-66
2023/10/20 11:21:48;;;;;;;0.50;0.50;;;6.80;99.90;;;;;;5116732;28;20118;-66
2023/10/20 11:24:34;;;;;;;0.50;0.50;;;6.80;99.90;;;;;;5098393;28;20052;-65
2023/10/20 11:27:05;;;;;;;0.43;0.43;;;6.80;99.90;;;;;;5116448;28;20043;-66
2023/10/20 11:29:32;;;;;;;0.60;0.60;;;7.10;99.90;;;;;;5116682;28;20106;-67
2023/10/20 11:32:06;;;;;;;0.50;0.50;;;6.80;99.90;;;;;;5116306;28;20036;-70
2023/10/20 11:34:35;;;;;;;0.50;0.50;;;6.80;99.90;;;;;;5117385;28;20032;-66
2023/10/20 11:37:02;;;;;;;0.40;0.40;;;6.80;99.90;;;;;;5098809;28;20099;-65
2023/10/20 11:39:28;;;;;;;0.40;0.40;;;6.80;99.90;;;;;;5116438;28;20042;-66
2023/10/20 11:41:54;;;;;;;0.50;0.50;;;6.80;99.90;;;;;;5116561;28;20483;-66
2023/10/20 11:44:24;;;;;;;0.47;0.47;;;6.80;99.90;;;;;;5116036;28;20044;-66
2023/10/20 11:46:53;;;;;;;0.40;0.40;;;6.80;99.90;;;;;;5097947;28;20040;-65
2023/10/20 11:49:24;;;;;;;0.50;0.50;;;6.80;99.90;;;;;;5115883;28;20043;-66
2023/10/20 11:51:50;;;;;;;0.50;0.50;;;6.80;99.90;;;;;;5116164;28;20131;-65
2023/10/20 11:54:16;;;;;;;0.50;0.50;;;7.00;99.90;;;;;;5115028;28;20495;-66
2023/10/20 11:56:42;;;;;;;0.40;0.40;;;6.80;99.90;;;;;;5115982;28;20063;-65
2023/10/20 11:59:09;;;;;;;0.45;0.45;;;6.80;99.90;;;;;;5115978;28;20031;-67
2023/10/20 12:01:35;;;;;;;0.40;0.40;;;6.80;99.90;;;;;;5115908;28;20032;-66
2023/10/20 12:04:05;;;;;;;0.50;0.50;;;6.80;99.90;;;;;;5114494;28;20524;-66
2023/10/20 12:06:31;;;;;;;0.85;0.73;;;6.80;99.90;;;;;;5097359;28;20043;-66
2023/10/20 12:08:56;;;;;;;0.50;0.50;;;6.80;99.90;;;;;;5097449;28;20403;-66
2023/10/20 12:11:22;;;;;;;0.50;0.50;;;7.40;99.90;;;;;;5097661;28;20398;-66
2023/10/20 12:13:48;;;;;;;0.50;0.50;;;6.70;99.90;;;;;;5115870;28;20035;-66
2023/10/20 12:16:15;;;;;;;0.50;0.50;;;6.80;99.90;;;;;;5115657;28;20059;-66
2023/10/20 12:18:44;;;;;;;0.35;0.35;;;6.80;99.90;;;;;;5115745;28;20031;-66
2023/10/20 12:21:10;;;;;;;0.50;0.50;;;6.80;99.90;;;;;;5115753;28;20032;-66
2023/10/20 12:23:36;;;;;;;0.50;0.50;;;7.10;99.90;;;;;;5115603;28;20503;-66
2023/10/20 12:26:03;;;;;;;0.47;0.47;;;6.80;99.90;;;;;;5115670;28;20415;-66
2023/10/20 12:28:29;;;;;;;0.50;0.50;;;6.80;99.90;;;;;;5115135;28;20050;-66
2023/10/20 12:30:54;;;;;;;0.40;0.40;;;6.80;99.90;;;;;;5096989;28;20048;-66
2023/10/20 12:33:20;;;;;;;0.50;0.50;;;6.80;99.90;;;;;;5096908;28;20452;-66
2023/10/20 12:35:46;;;;;;;0.50;0.50;;;6.80;99.90;;;;;;5096757;28;20054;-66
2023/10/20 12:38:12;;;;;;;0.40;0.40;;;6.80;99.90;;;;;;5115336;28;20471;-66
2023/10/20 12:40:40;;;;;;;0.50;0.50;;;6.80;99.90;;;;;;5115226;28;20461;-66
2023/10/20 12:43:09;;;;;;;0.50;0.50;;;6.80;99.90;;;;;;5114959;28;20036;-66
2023/10/20 12:45:38;;;;;;;0.40;0.40;;;6.80;99.90;;;;;;5115064;28;20118;-66
2023/10/20 12:48:08;;;;;;;0.40;0.40;;;6.90;99.90;;;;;;5115131;28;20076;-66
2023/10/20 12:50:33;;;;;;;0.50;0.50;;;6.80;99.90;;;;;;5114817;28;20104;-66
2023/10/20 12:53:00;;;;;;;0.50;0.50;;;6.80;99.90;;;;;;5115052;28;20043;-66
2023/10/20 12:55:26;;;;;;;0.40;0.40;;;6.90;99.90;;;;;;5114651;28;20036;-66
2023/10/20 12:57:52;;;;;;;0.40;0.40;;;7.30;99.90;;;;;;5113255;28;20047;-66
2023/10/20 13:00:20;;;;;;;0.55;0.50;;;6.80;99.90;;;;;;5114545;28;20044;-66
2023/10/20 13:02:50;;;;;;;0.50;0.50;;;6.80;99.90;;;;;;5114507;28;20027;-66
2023/10/20 13:05:16;;;;;;;0.50;0.50;;;6.80;99.90;;;;;;5114389;28;20427;-67
2023/10/20 13:07:42;;;;;;;0.40;0.40;;;6.70;99.90;;;;;;5096184;28;20051;-67
2023/10/20 13:10:09;;;;;;;0.40;0.40;;;6.80;99.90;;;;;;5114730;28;20395;-67
2023/10/20 13:12:35;;;;;;;0.40;0.40;;;6.80;99.90;;;;;;5114580;28;20073;-66
2023/10/20 13:15:00;;;;;;;0.70;0.70;;;6.80;99.90;;;;;;5114620;28;20494;-66
2023/10/20 13:17:27;;;;;;;0.50;0.50;;;6.80;99.90;;;;;;5114445;28;20063;-66
2023/10/20 13:19:53;;;;;;;0.40;0.40;;;6.80;99.90;;;;;;5114491;28;20066;-66
2023/10/20 13:22:19;;;;;;;0.50;0.50;;;6.80;99.90;;;;;;5096306;28;20395;-66
2023/10/20 13:24:44;;;;;;;0.50;0.50;;;6.80;99.90;;;;;;5114364;28;20032;-66
2023/10/20 13:27:12;;;;;;;0.40;0.40;;;6.80;99.90;;;;;;5114373;28;20479;-66